• Join FlightAware (Why Join?)
  • Login
  • US Flag 
05:01AM EDT


 

Airport Tracker/Info


-or-


 

Live Flight TrackerFlight Track Log ✈ N82423 ✈ 30-Jul-2013 ✈ KGRB - KBTL

Flight Track Log - Related Links

Times and Time Zones

All times are in EDT time to prevent confusion due to time zone crossing. See the N82423 flight status page for this flight to view local times or setup timezone preferences in your user account.

Time Position Orientation Groundspeed Altitude Reporting Facility
EDT Latitude Longitude Course Direction KTS MPH feet Rate Location/Type
06:00PM 44.4247 -88.1011 58° Northeast 93 107 3,000  Level Chicago Center
06:01PM 44.4183 -88.0642 104° East 96 110 3,500 480 Climbing Chicago Center
06:02PM 44.4111 -88.0281 106° East 97 112 4,100 600 Climbing Chicago Center
06:03PM 44.4036 -87.9864 104° East 105 121 4,800 660 Climbing Chicago Center
06:04PM 44.3228 -87.9050 111° Southeast  Level Estimated
06:04PM 44.3931 -87.9381 107° East 110 127 5,500  Level Chicago Center
06:05PM 44.3426 -87.8597 58° Northeast  Level FlightAware Approximate
06:05PM 44.3678 -87.9158 148° Southeast 106 122 6,100  Level Minneapolis Center
06:06PM 44.3489 -87.8872 133° Southeast 103 119 6,600 480 Climbing Minneapolis Center
06:07PM 44.3233 -87.8533 137° Southeast 105 121 7,200 480 Climbing Minneapolis Center
06:08PM 44.3000 -87.8222 136° Southeast 111 128 7,700 480 Climbing Minneapolis Center
06:09PM 44.2750 -87.7894 137° Southeast 119 137 8,200 420 Climbing Minneapolis Center
06:10PM 44.2483 -87.7594 141° Southeast 123 142 8,600 420 Climbing Minneapolis Center
06:11PM 44.2222 -87.7281 139° Southeast 122 140 9,100 480 Climbing Minneapolis Center
06:12PM 44.1958 -87.6858 131° Southeast 124 143 9,600 420 Climbing Minneapolis Center
06:13PM 44.1719 -87.6489 132° Southeast 127 146 10,000 360 Climbing Minneapolis Center
06:14PM 44.1494 -87.6100 129° Southeast 129 148 10,400 360 Climbing Minneapolis Center
06:15PM 44.1244 -87.5750 135° Southeast 129 148 10,800 240 Climbing Minneapolis Center
06:16PM 44.0972 -87.5428 140° Southeast 129 148 10,900 120 Climbing Minneapolis Center
06:18PM 44.0594 -87.4931 137° Southeast 139 160 11,100 60 Climbing Minneapolis Center
06:19PM 44.0322 -87.4525 133° Southeast 142 163 11,100 -60 Level Minneapolis Center
06:20PM 44.0017 -87.4164 140° Southeast 143 165 11,000 -60 Descending Minneapolis Center
06:21PM 43.9686 -87.3808 142° Southeast 148 170 11,000  Level Minneapolis Center
06:22PM 43.9403 -87.3417 135° Southeast 145 167 11,000  Level Minneapolis Center
06:23PM 43.9058 -87.2972 137° Southeast 145 167 11,000  Level Minneapolis Center
06:24PM 43.8764 -87.2564 135° Southeast 148 170 11,000  Level Minneapolis Center
06:24PM 43.8550 -87.2253 134° Southeast 150 173 11,000  Level Chicago Center
06:25PM 43.8269 -87.1872 136° Southeast 144 166 11,000  Level Chicago Center
06:27PM 43.8000 -87.1450 131° Southeast 146 168 11,000  Level Chicago Center
06:28PM 43.7719 -87.1047 134° Southeast 146 168 11,000  Level Chicago Center
06:29PM 43.7400 -87.0703 142° Southeast 146 168 11,100  Climbing Chicago Center
06:30PM 43.7086 -87.0206 131° Southeast 144 166 11,100 -60 Level Chicago Center
06:31PM 43.6822 -86.9764 130° Southeast 148 170 11,000 -60 Descending Chicago Center
06:32PM 43.6511 -86.9408 140° Southeast 146 168 11,000  Level Chicago Center
06:33PM 43.6192 -86.9050 141° Southeast 147 169 11,000  Level Chicago Center
06:34PM 43.5900 -86.8650 135° Southeast 147 169 11,000  Level Chicago Center
06:35PM 43.5619 -86.8267 135° Southeast 143 165 11,000  Level Chicago Center
06:36PM 43.5286 -86.7761 132° Southeast 148 170 11,000  Level Chicago Center
06:37PM 43.5003 -86.7375 135° Southeast 145 167 11,000  Level Chicago Center
06:38PM 43.4656 -86.7122 152° Southeast 143 165 11,100  Climbing Chicago Center
06:39PM 43.4353 -86.6750 138° Southeast 146 168 11,100 -60 Level Chicago Center
06:40PM 43.4064 -86.6353 135° Southeast 147 169 11,000  Descending Chicago Center
06:41PM 43.3822 -86.5878 125° Southeast 151 174 11,100  Climbing Chicago Center
06:42PM 43.3456 -86.5453 140° Southeast 146 168 11,100  Level Chicago Center
06:43PM 43.3125 -86.5131 145° Southeast 145 167 11,100  Level Chicago Center
06:44PM 43.2831 -86.4744 136° Southeast 147 169 11,100  Level Chicago Center
06:45PM 43.2519 -86.4397 141° Southeast 146 168 11,100  Level Chicago Center
06:46PM 43.2225 -86.4014 137° Southeast 146 168 11,100 -60 Level Chicago Center
06:47PM 43.1883 -86.3517 133° Southeast 150 173 11,000 -60 Descending Chicago Center
06:48PM 43.1575 -86.3131 138° Southeast 151 174 11,000  Level Chicago Center
06:49PM 43.1267 -86.2778 140° Southeast 147 169 11,000  Level Chicago Center
06:50PM 43.0958 -86.2400 138° Southeast 149 171 11,000  Level Chicago Center
06:51PM 43.0650 -86.2014 138° Southeast 150 173 11,000  Level Chicago Center
06:52PM 43.0303 -86.1544 135° Southeast 148 170 11,000  Level Chicago Center
06:53PM 43.0039 -86.1106 129° Southeast 151 174 11,000 -60 Level Chicago Center
06:54PM 42.9750 -86.0711 135° Southeast 150 173 10,900 -60 Descending Chicago Center
06:56PM 42.9458 -86.0311 135° Southeast 151 174 10,900  Level Chicago Center
06:57PM 42.9175 -85.9908 134° Southeast 149 171 10,900 -60 Level Chicago Center
06:58PM 42.8811 -85.9447 137° Southeast 149 171 10,800 -300 Descending Chicago Center
06:59PM 42.8478 -85.9142 146° Southeast 146 168 10,300 -540 Descending Chicago Center
07:00PM 42.8150 -85.8808 143° Southeast 147 169 9,700 -540 Descending Chicago Center
07:01PM 42.7825 -85.8461 142° Southeast 148 170 9,200 -540 Descending Chicago Center
07:02PM 42.7503 -85.8147 144° Southeast 145 167 8,600 -600 Descending Chicago Center
07:03PM 42.7172 -85.7692 135° Southeast 142 163 8,000 -540 Descending Chicago Center
07:04PM 42.6933 -85.7244 126° Southeast 146 168 7,500 -600 Descending Chicago Center
07:05PM 42.6647 -85.6864 136° Southeast 145 167 6,800 -780 Descending Chicago Center
07:06PM 42.6358 -85.6586 145° Southeast 133 153 5,900 -840 Descending Chicago Center
07:07PM 42.6089 -85.6258 138° Southeast 130 150 5,100 -540 Descending Chicago Center
07:08PM 42.5775 -85.5875 138° Southeast 127 146 4,900 -120 Descending Chicago Center
07:09PM 42.5539 -85.5497 130° Southeast 130 150 4,900  Level Chicago Center
07:10PM 42.5339 -85.5100 124° Southeast 128 147 5,000  Climbing Chicago Center
07:11PM 42.5136 -85.4686 124° Southeast 131 151 5,000 -240 Level Chicago Center
07:12PM 42.4894 -85.4283 129° Southeast 136 157 4,600 -360 Descending Chicago Center
07:13PM 42.4664 -85.3847 126° Southeast 141 162 4,300 -480 Descending Chicago Center
07:14PM 42.4364 -85.3372 131° Southeast 139 160 3,600 -600 Descending Chicago Center
07:15PM 42.4086 -85.3025 137° Southeast 136 157 3,100 -540 Descending Chicago Center
07:16PM 42.3817 -85.2706 139° Southeast 132 152 2,500 -540 Descending Chicago Center
07:17PM 42.3547 -85.2350 136° Southeast 134 154 2,100 -540 Descending Chicago Center
07:18PM 42.3319 -85.2239 160° South 122 140 1,500 -600 Descending Chicago Center
07:20PM 42.3000 -85.2500 160° South  Level FlightAware Approximate